Allensville, Kentucky
Current Conditions -  °F | °C
As of 7:35 AM on Thursday 18 Dec 2014 (Local Time) from KM91 Reporting Station
Overcast Overcast  
Wind Chill: 30°   Ceiling: 6000
Heat Index: 30°   Visibility: 10mi
Dew Point: 30°   Wind: 3mph
Humidity: 100%   Direction: 30°NNE
Pressure: 30.24"   Gusts: NA
Location:  36.72°N, 87.07°W
Report Text: KM91 181335Z AUTO 03003KT 10SM OVC060 M01/M01 A3024 RMK
Loading
Personal Weather Stations






























Interactive Weather Map New forecast layout! Learn more

10-Day Weather Forecast

Advertisements
Track Severe Weather on mobile